Flugplatz Hockenheim

Für EDFX sind keine METAR/TAF Berichte vorhanden.
Es werden die Flugwettermeldungen vom Flugplatz Mannheim-City in 16 km Entfernung angezeigt.

Bericht für EDFM

vom 25.10. um 15:50 UTC

variable Windrichtung mit 2 kt

Sichtweite 10 km oder mehr

gute Sicht, keine Wolken < 5000 ft, keine CB, keine Wettererscheinungen (CAVOK)

Temperatur 15.0°C

Taupunkt 6.0°C

Luftfeuchtigkeit 55%

Luftdruck 1019 hPa

EDFM 251550Z VRB02KT CAVOK 15/06 Q1019

Prognose für EDFM

vom 25.10. um 14:00 UTC

Zwischen 15:00 UTC und 21:00 UTC

Wind 4 kt aus 160°

Sichtweite 10 km oder mehr

keine signifikanten Wettererscheinungen

keine Wolken

TAF EDFM 251400Z 2515/2521 16004KT CAVOK
Impressum